Terminal Aerodrome Forecast
Issued by NWS Lake Charles, LA

Home | Current Version | Previous Version | Text Only | Print | Product List | Glossary On
Versions: 1 2 3 4 5 6 7 8 9 10 11 12 13 14 15 16 17 18
000
FTUS44 KLCH 261720
TAFAEX
TAF
KAEX 261720Z 2618/2718 19012G20KT P6SM SCT035 SCT045
     FM262000 18012G20KT P6SM VCTS SCT025 BKN035CB
      TEMPO 2620/2624 3SM TSRA BKN025 BKN035CB
     FM270100 18007KT P6SM VCSH BKN025
     FM271500 17014G22KT P6SM VCTS BKN025CB=

USA.gov is the U.S. government's official web portal to all federal, state and local government web resources and services.